Time;durP1;ratioP1;P1;durP2;ratioP2;P2;SDS_P1;SDS_P2;PMS_P1;PMS_P2;Temp;Humidity;BMP_temperature;BMP_pressure;BME280_temperature;BME280_humidity;BME280_pressure;Samples;Min_cycle;Max_cycle;Signal;HPM_P1;HPM_P2
2023/09/23 00:00:12;;;;;;;16.83;15.43;;;;;;;12.16;96.43;100489.72;3586183;39;20047;-68
2023/09/23 00:02:38;;;;;;;16.80;15.30;;;;;;;12.17;96.31;100499.53;3591916;39;20133;-68
2023/09/23 00:05:08;;;;;;;16.83;15.32;;;;;;;12.17;96.09;100496.84;3591657;39;20323;-69
2023/09/23 00:07:34;;;;;;;17.73;16.10;;;;;;;12.17;97.00;100499.53;3591519;39;20385;-68
2023/09/23 00:10:05;;;;;;;16.15;14.68;;;;;;;11.92;96.60;100449.28;3593779;39;20047;-68
2023/09/23 00:12:30;;;;;;;16.38;14.88;;;;;;;12.15;97.11;100506.03;3591961;39;20315;-69
2023/09/23 00:14:57;;;;;;;17.05;15.35;;;;;;;12.16;97.38;100502.34;3590641;39;20059;-68
2023/09/23 00:17:23;;;;;;;15.35;13.95;;;;;;;12.16;96.87;100505.91;3592683;39;20121;-69
2023/09/23 00:19:48;;;;;;;16.88;15.02;;;;;;;12.15;97.51;100496.09;3585836;39;20093;-68
2023/09/23 00:22:14;;;;;;;16.60;15.00;;;;;;;12.11;97.83;100486.50;3593022;39;20059;-70
2023/09/23 00:24:39;;;;;;;16.23;14.73;;;;;;;11.76;97.64;100427.97;3593778;39;20078;-69
2023/09/23 00:27:06;;;;;;;15.55;14.05;;;;;;;12.08;97.28;100484.03;3593780;39;20066;-69
2023/09/23 00:29:33;;;;;;;14.65;13.25;;;;;;;12.20;97.53;100511.91;3589812;39;20135;-69
2023/09/23 00:31:59;;;;;;;14.38;13.00;;;;;;;12.20;97.51;100512.78;3596064;39;20047;-69
2023/09/23 00:34:25;;;;;;;15.15;13.55;;;;;;;12.22;98.24;100508.16;3593999;39;20054;-69
2023/09/23 00:36:51;;;;;;;15.30;13.73;;;;;;;12.08;97.46;100489.41;3592832;39;20052;-69
2023/09/23 00:39:17;;;;;;;13.90;12.60;;;;;;;12.24;97.67;100510.72;3593259;39;20095;-69
2023/09/23 00:41:43;;;;;;;13.15;11.85;;;;;;;12.10;98.17;100492.88;3583001;39;20085;-69
2023/09/23 00:44:10;;;;;;;14.55;13.13;;;;;;;12.26;98.31;100517.72;3592522;39;20066;-70
2023/09/23 00:46:37;;;;;;;13.70;12.30;;;;;;;12.25;98.81;100518.69;3592845;39;20066;-69
2023/09/23 00:49:07;;;;;;;13.23;11.82;;;;;;;12.29;98.67;100525.56;3593411;39;20059;-70
2023/09/23 00:51:34;;;;;;;12.75;11.45;;;;;;;12.30;98.16;100519.22;3593584;39;20048;-68
2023/09/23 00:54:04;;;;;;;11.52;10.43;;;;;;;12.30;98.22;100521.03;3592505;39;20056;-69
2023/09/23 00:56:31;;;;;;;11.05;9.65;;;;;;;12.30;98.37;100521.94;3593591;39;20075;-69
2023/09/23 00:58:59;;;;;;;11.52;10.35;;;;;;;12.14;98.75;100499.75;3597400;39;20306;-68
2023/09/23 01:01:26;;;;;;;11.52;10.15;;;;;;;12.34;98.37;100527.94;3593544;39;20050;-70
2023/09/23 01:03:52;;;;;;;10.73;9.73;;;;;;;12.20;97.98;100510.06;3591554;39;20104;-70
2023/09/23 01:06:19;;;;;;;10.60;9.60;;;;;;;12.29;97.91;100528.28;3593404;39;20048;-69
2023/09/23 01:08:46;;;;;;;10.40;9.35;;;;;;;11.77;98.42;100448.56;3595094;39;20083;-70
2023/09/23 01:11:13;;;;;;;10.38;8.88;;;;;;;12.31;98.03;100539.81;3593863;39;20133;-67
2023/09/23 01:13:42;;;;;;;10.68;9.20;;;;;;;12.35;98.43;100536.88;3596617;39;20063;-69
2023/09/23 01:16:12;;;;;;;11.10;9.07;;;;;;;12.36;98.16;100546.69;3592439;39;20066;-69
2023/09/23 01:18:40;;;;;;;10.73;8.80;;;;;;;12.19;97.33;100510.22;3593304;39;20047;-69
2023/09/23 01:21:08;;;;;;;11.38;8.48;;;;;;;12.35;97.71;100539.59;3592059;39;20411;-68
2023/09/23 01:23:36;;;;;;;9.20;8.30;;;;;;;12.27;97.77;100535.63;3592044;39;20056;-69
2023/09/23 01:26:02;;;;;;;10.80;8.23;;;;;;;12.39;98.06;100552.69;3592120;39;20052;-69
2023/09/23 01:28:28;;;;;;;11.55;8.80;;;;;;;12.42;98.35;100554.31;3595480;39;20398;-69
2023/09/23 01:30:54;;;;;;;12.20;8.35;;;;;;;12.42;97.98;100554.31;3591847;39;20059;-69
2023/09/23 01:33:19;;;;;;;8.73;7.50;;;;;;;12.41;97.81;100549.91;3599763;39;20051;-69
2023/09/23 01:35:48;;;;;;;13.23;7.95;;;;;;;11.98;97.43;100485.69;3592192;39;20125;-70
2023/09/23 01:38:15;;;;;;;9.90;8.00;;;;;;;12.40;97.62;100556.25;3597564;39;20055;-70
2023/09/23 01:40:41;;;;;;;8.73;7.22;;;;;;;12.42;98.27;100557.00;3593166;39;20055;-69
2023/09/23 01:43:11;;;;;;;9.85;7.78;;;;;;;12.47;98.22;100565.63;3592449;39;20070;-69
2023/09/23 01:45:37;;;;;;;9.10;7.20;;;;;;;12.46;97.99;100569.28;3591824;39;20459;-70
2023/09/23 01:48:03;;;;;;;8.88;6.97;;;;;;;12.46;98.17;100570.16;3588390;39;20095;-67
2023/09/23 01:50:29;;;;;;;10.30;7.35;;;;;;;12.48;98.02;100565.50;3593999;39;20410;-69
2023/09/23 01:53:00;;;;;;;10.98;8.10;;;;;;;12.50;97.58;100577.06;3593504;39;20048;-68
2023/09/23 01:55:27;;;;;;;9.88;7.50;;;;;;;12.15;97.93;100514.09;3593725;39;20064;-69
2023/09/23 01:57:53;;;;;;;10.32;7.13;;;;;;;12.53;97.83;100566.03;3592368;39;20067;-67
2023/09/23 02:00:24;;;;;;;12.48;6.90;;;;;;;12.46;97.22;100569.28;3594723;39;20055;-68
2023/09/23 02:02:52;;;;;;;36.70;29.85;;;;;;;12.30;96.89;100554.28;3591628;39;20428;-68
2023/09/23 02:05:18;;;;;;;13.90;8.38;;;;;;;12.03;97.17;100510.47;3593188;39;20390;-69
2023/09/23 02:07:47;;;;;;;8.15;6.40;;;;;;;12.39;97.21;100578.81;3593418;39;20128;-69
2023/09/23 02:10:15;;;;;;;7.93;6.18;;;;;;;12.38;96.97;100577.94;3594238;39;20680;-69
2023/09/23 02:12:42;;;;;;;10.10;5.72;;;;;;;12.38;97.45;100587.88;3592326;39;20155;-68
2023/09/23 02:15:09;;;;;;;10.48;6.25;;;;;;;12.12;97.30;100546.66;3592915;39;20079;-69
2023/09/23 02:17:37;;;;;;;9.55;5.95;;;;;;;12.32;96.96;100581.94;3594855;39;20059;-66
2023/09/23 02:20:10;;;;;;;7.78;5.45;;;;;;;12.34;96.47;100597.13;3592675;39;20055;-69
2023/09/23 02:22:37;;;;;;;9.10;5.60;;;;;;;12.25;96.71;100588.75;3593262;39;20415;-69
2023/09/23 02:25:04;;;;;;;11.85;5.65;;;;;;;12.25;96.77;100599.53;3592123;39;20044;-67
2023/09/23 02:27:29;;;;;;;10.35;5.25;;;;;;;12.25;97.15;100596.84;3592709;39;20036;-70
2023/09/23 02:29:55;;;;;;;6.45;5.10;;;;;;;12.25;97.35;100604.09;3592443;39;20048;-70
2023/09/23 02:32:21;;;;;;;7.88;4.97;;;;;;;12.23;96.81;100600.63;3595426;39;20068;-71
2023/09/23 02:34:46;;;;;;;8.48;5.07;;;;;;;12.18;96.97;100598.28;3595302;39;20051;-67
2023/09/23 02:37:12;;;;;;;9.18;4.63;;;;;;;12.22;97.10;100610.53;3592815;39;20060;-70
2023/09/23 02:39:38;;;;;;;7.80;4.90;;;;;;;12.05;96.86;100586.63;3591604;39;20357;-69
2023/09/23 02:42:05;;;;;;;7.00;4.43;;;;;;;11.78;96.57;100544.53;3592868;39;20056;-69
2023/09/23 02:44:31;;;;;;;6.00;4.72;;;;;;;12.16;96.63;100616.38;3594481;39;20049;-68
2023/09/23 02:46:56;;;;;;;8.50;5.03;;;;;;;11.94;97.31;100586.56;3592943;39;20040;-68
2023/09/23 02:49:22;;;;;;;6.45;4.38;;;;;;;12.17;97.14;100623.47;3593738;39;21438;-69
2023/09/23 02:51:48;;;;;;;10.27;5.00;;;;;;;12.17;97.03;100628.00;3594068;39;20054;-68
2023/09/23 02:54:18;;;;;;;9.38;4.45;;;;;;;12.16;96.95;100626.31;3593799;39;20055;-69
2023/09/23 02:56:47;;;;;;;10.65;4.63;;;;;;;12.16;96.89;100631.69;3591251;39;20052;-69
2023/09/23 02:59:15;;;;;;;7.97;4.70;;;;;;;12.09;96.83;100623.19;3594328;39;20064;-69
2023/09/23 03:01:45;;;;;;;6.45;4.30;;;;;;;12.05;97.20;100618.97;3579480;39;20075;-69
2023/09/23 03:04:23;;;;;;;7.70;4.45;;;;;;;12.09;97.16;100636.66;3594483;39;20124;-69
2023/09/23 03:07:01;;;;;;;6.03;4.05;;;;;;;12.04;97.54;100626.19;3593742;39;20059;-67
2023/09/23 03:09:32;;;;;;;7.25;4.32;;;;;;;12.10;97.66;100634.81;3594632;39;20063;-69
2023/09/23 03:12:00;;;;;;;6.32;4.07;;;;;;;12.06;97.57;100634.19;3591311;39;20043;-68
2023/09/23 03:14:36;;;;;;;8.80;4.03;;;;;;;12.08;97.82;100638.50;3593852;39;20043;-69
2023/09/23 03:17:03;;;;;;;6.05;3.35;;;;;;;11.68;97.42;100564.16;3592177;39;20141;-70
2023/09/23 03:19:32;;;;;;;7.70;3.65;;;;;;;12.09;97.62;100636.66;3592436;39;20060;-68
2023/09/23 03:22:00;;;;;;;9.48;3.63;;;;;;;12.09;97.41;100642.03;3585243;39;20357;-68
2023/09/23 03:24:29;;;;;;;7.55;3.65;;;;;;;12.03;97.27;100640.63;3593563;39;20079;-69
2023/09/23 03:26:58;;;;;;;5.40;3.50;;;;;;;12.08;97.25;100645.69;3594265;39;20051;-70
2023/09/23 03:29:28;;;;;;;6.55;3.72;;;;;;;12.08;97.16;100648.38;3591697;39;20367;-69
2023/09/23 03:31:59;;;;;;;6.65;3.45;;;;;;;12.07;97.17;100647.53;3590593;39;20068;-69
2023/09/23 03:34:26;;;;;;;8.63;3.88;;;;;;;12.08;97.17;100653.78;3592940;39;20113;-70
2023/09/23 03:36:58;;;;;;;15.30;3.97;;;;;;;12.05;97.15;100651.28;3591687;39;20048;-69
2023/09/23 03:39:24;;;;;;;5.70;3.47;;;;;;;12.05;97.06;100651.28;3590950;39;20060;-68
2023/09/23 03:41:50;;;;;;;4.57;3.42;;;;;;;12.04;96.84;100660.34;3592197;39;20060;-69
2023/09/23 03:44:16;;;;;;;6.35;3.55;;;;;;;12.02;97.47;100655.09;3590655;39;20113;-68
2023/09/23 03:46:50;;;;;;;6.57;3.65;;;;;;;12.03;97.61;100661.34;3594021;39;20063;-69
2023/09/23 03:49:20;;;;;;;4.90;3.25;;;;;;;11.84;97.60;100629.41;3594648;39;20389;-68
2023/09/23 03:51:46;;;;;;;6.30;3.30;;;;;;;12.01;97.16;100665.97;3591350;39;20047;-68
2023/09/23 03:54:11;;;;;;;6.72;3.28;;;;;;;11.95;97.20;100655.63;3592900;39;20059;-68
2023/09/23 03:56:40;;;;;;;6.45;3.47;;;;;;;11.99;97.57;100667.91;3580793;39;20105;-68
2023/09/23 03:59:06;;;;;;;7.47;3.63;;;;;;;11.97;97.56;100669.84;3586076;39;20063;-68
2023/09/23 04:01:38;;;;;;;7.03;3.28;;;;;;;11.99;97.47;100668.78;3593858;39;20067;-69
2023/09/23 04:04:06;;;;;;;7.18;3.53;;;;;;;11.97;97.31;100665.31;3593723;39;20060;-68
2023/09/23 04:06:33;;;;;;;8.35;3.42;;;;;;;11.98;98.01;100679.66;3594091;39;20124;-68
2023/09/23 04:08:59;;;;;;;6.75;3.47;;;;;;;11.98;97.70;100677.81;3593472;39;20095;-68
2023/09/23 04:11:26;;;;;;;7.68;3.35;;;;;;;11.96;98.19;100669.00;3592930;39;20434;-68
2023/09/23 04:13:53;;;;;;;7.20;3.78;;;;;;;12.00;98.33;100669.63;3591977;39;20066;-68
2023/09/23 04:16:19;;;;;;;6.07;3.50;;;;;;;11.98;98.50;100666.19;3592050;39;20060;-68
2023/09/23 04:18:51;;;;;;;8.85;3.65;;;;;;;12.04;98.36;100687.31;3595101;39;20106;-68
2023/09/23 04:21:17;;;;;;;6.72;4.00;;;;;;;12.00;98.27;100693.88;3591882;39;20301;-69
2023/09/23 04:23:43;;;;;;;9.80;3.88;;;;;;;11.98;98.12;100693.97;3595035;39;20060;-68
2023/09/23 04:26:08;;;;;;;7.20;3.72;;;;;;;11.96;98.61;100698.63;3593835;39;20063;-67
2023/09/23 04:28:34;;;;;;;5.25;3.42;;;;;;;11.94;97.78;100702.38;3595524;39;20056;-68
2023/09/23 04:31:00;;;;;;;6.43;3.50;;;;;;;11.71;98.21;100668.94;3592327;39;20066;-67
2023/09/23 04:33:27;;;;;;;8.18;3.67;;;;;;;11.68;98.03;100667.31;3592532;39;20475;-68
2023/09/23 04:35:58;;;;;;;6.95;3.67;;;;;;;11.91;98.12;100713.38;3592043;39;20055;-67
2023/09/23 04:38:25;;;;;;;5.93;3.60;;;;;;;11.68;98.01;100675.41;3592655;39;20067;-68
2023/09/23 04:40:52;;;;;;;6.55;3.97;;;;;;;11.88;98.15;100719.84;3595685;39;20055;-69
2023/09/23 04:43:19;;;;;;;6.57;3.88;;;;;;;11.89;98.07;100718.84;3583078;39;20058;-68
2023/09/23 04:45:45;;;;;;;7.20;3.70;;;;;;;11.89;98.10;100728.78;3593654;39;20059;-67
2023/09/23 04:48:11;;;;;;;5.25;3.47;;;;;;;11.87;98.11;100728.03;3594391;39;20063;-68
2023/09/23 04:50:39;;;;;;;6.90;3.92;;;;;;;11.85;97.91;100725.44;3595760;39;20043;-68
2023/09/23 04:53:06;;;;;;;4.65;3.53;;;;;;;11.84;97.90;100729.97;3592810;39;20414;-67
2023/09/23 04:55:32;;;;;;;6.80;4.22;;;;;;;11.84;98.44;100724.56;3594679;39;20043;-68
2023/09/23 04:57:58;;;;;;;6.25;3.58;;;;;;;11.01;98.65;100594.75;3593175;39;20074;-68
2023/09/23 05:00:25;;;;;;;6.55;3.40;;;;;;;11.69;98.25;100706.72;3592539;39;20059;-69
2023/09/23 05:02:52;;;;;;;6.55;3.67;;;;;;;11.84;98.02;100740.72;3593467;39;20408;-69
2023/09/23 05:05:19;;;;;;;5.05;3.40;;;;;;;11.82;98.06;100745.31;3594864;39;20115;-69
2023/09/23 05:07:45;;;;;;;6.68;4.25;;;;;;;11.81;97.97;100746.28;3594795;39;20048;-68
2023/09/23 05:10:12;;;;;;;5.00;3.50;;;;;;;11.80;97.52;100757.19;3594937;39;20160;-69
2023/09/23 05:12:40;;;;;;;6.28;4.00;;;;;;;11.80;97.68;100751.81;3591968;39;20060;-69
2023/09/23 05:15:10;;;;;;;6.90;3.83;;;;;;;11.73;98.11;100753.16;3592009;39;20074;-69
2023/09/23 05:17:38;;;;;;;7.05;3.92;;;;;;;11.80;97.89;100773.34;3593903;39;20474;-68
2023/09/23 05:20:22;;;;;;;7.15;4.13;;;;;;;11.79;97.94;100769.75;3592381;39;20720;-69
2023/09/23 05:22:48;;;;;;;5.13;3.88;;;;;;;11.77;97.69;100771.72;3595585;39;20055;-68
2023/09/23 05:25:14;;;;;;;6.85;3.80;;;;;;;11.68;97.77;100766.94;3592431;39;20099;-69
2023/09/23 05:27:42;;;;;;;4.78;3.65;;;;;;;11.69;98.50;100776.75;3593563;39;20044;-70
2023/09/23 05:30:10;;;;;;;8.05;4.13;;;;;;;11.63;97.43;100777.16;3591712;39;20052;-69
2023/09/23 05:32:39;;;;;;;6.15;4.20;;;;;;;11.67;97.81;100791.28;3593348;39;20048;-69
2023/09/23 05:35:09;;;;;;;6.35;4.05;;;;;;;11.57;97.88;100774.88;3591356;39;20067;-69
2023/09/23 05:37:40;;;;;;;8.63;4.35;;;;;;;11.41;98.12;100752.63;3583338;39;20394;-69
2023/09/23 05:40:29;;;;;;;7.60;4.22;;;;;;;11.72;98.10;100808.84;3592381;39;20067;-69
2023/09/23 05:42:56;;;;;;;9.10;3.90;;;;;;;11.54;97.80;100784.00;3593354;39;20081;-69
2023/09/23 05:45:25;;;;;;;7.88;4.00;;;;;;;11.72;98.01;100814.25;3590916;39;20051;-68
2023/09/23 05:47:52;;;;;;;4.80;3.38;;;;;;;11.71;98.34;100828.69;3592716;39;20398;-69
2023/09/23 05:50:20;;;;;;;5.13;4.30;;;;;;;11.70;98.18;100821.53;3592613;39;20107;-69
2023/09/23 05:52:45;;;;;;;12.20;4.05;;;;;;;11.71;98.32;100820.59;3591270;39;20046;-69
2023/09/23 05:55:12;;;;;;;6.82;3.75;;;;;;;11.72;97.85;100827.69;3591266;39;20071;-68
2023/09/23 05:57:40;;;;;;;7.57;3.95;;;;;;;11.72;98.37;100835.78;3593485;39;20047;-69
2023/09/23 06:00:11;;;;;;;6.18;3.97;;;;;;;11.71;98.68;100831.38;3591998;39;20063;-69
2023/09/23 06:02:38;;;;;;;9.15;4.57;;;;;;;11.69;98.44;100827.91;3593103;39;20075;-69
2023/09/23 06:05:04;;;;;;;6.40;4.47;;;;;;;11.74;98.86;100841.94;3586531;39;20411;-69
2023/09/23 06:07:33;;;;;;;8.30;4.35;;;;;;;11.80;98.47;100843.38;3593554;39;20259;-69
2023/09/23 06:10:00;;;;;;;7.28;4.22;;;;;;;11.79;98.55;100850.56;3594252;39;20132;-70
2023/09/23 06:12:30;;;;;;;9.95;4.70;;;;;;;11.81;98.60;100859.41;3592145;39;20048;-69
2023/09/23 06:15:01;;;;;;;7.45;3.83;;;;;;;11.85;98.80;100871.72;3592025;39;20068;-68
2023/09/23 06:17:28;;;;;;;8.40;4.25;;;;;;;11.90;99.19;100867.88;3591847;39;20421;-70
2023/09/23 06:19:56;;;;;;;6.72;3.88;;;;;;;11.94;99.04;100882.88;3595096;39;20063;-69
2023/09/23 06:22:23;;;;;;;8.80;4.10;;;;;;;11.98;98.58;100882.56;3592599;39;20051;-70
2023/09/23 06:24:53;;;;;;;5.18;4.15;;;;;;;12.05;99.24;100893.78;3592475;39;20383;-69
2023/09/23 06:27:19;;;;;;;7.75;4.22;;;;;;;12.09;98.62;100895.31;3590609;39;20095;-69
2023/09/23 06:29:46;;;;;;;7.57;4.15;;;;;;;11.98;98.12;100871.78;3592320;39;20062;-69
2023/09/23 06:32:13;;;;;;;5.90;4.00;;;;;;;11.92;98.37;100857.84;3592054;39;20133;-69
2023/09/23 06:34:39;;;;;;;5.95;3.72;;;;;;;12.18;98.13;100894.72;3592752;39;20103;-70
2023/09/23 06:37:04;;;;;;;7.38;4.03;;;;;;;12.18;97.97;100896.50;3591517;39;20071;-70
2023/09/23 06:39:30;;;;;;;5.65;3.72;;;;;;;12.24;98.38;100910.47;3590496;39;20111;-70
2023/09/23 06:41:56;;;;;;;11.05;4.28;;;;;;;12.21;98.22;100902.59;3591352;39;20055;-69
2023/09/23 06:44:22;;;;;;;7.72;4.03;;;;;;;12.29;97.80;100912.84;3586872;39;20114;-70
2023/09/23 06:46:50;;;;;;;6.70;4.10;;;;;;;12.31;98.38;100922.56;3590617;39;20547;-68
2023/09/23 06:49:17;;;;;;;9.77;4.30;;;;;;;12.28;98.01;100911.13;3591614;39;20051;-71
2023/09/23 06:51:43;;;;;;;6.95;4.10;;;;;;;11.98;98.50;100854.75;3592011;39;20058;-70
2023/09/23 06:54:08;;;;;;;6.80;4.15;;;;;;;12.45;98.76;100931.53;3592094;39;20044;-69
2023/09/23 06:56:37;;;;;;;6.85;4.38;;;;;;;12.52;98.14;100935.53;3594686;39;20058;-69
2023/09/23 06:59:03;;;;;;;6.13;3.83;;;;;;;12.57;98.15;100930.69;3593284;39;20051;-68
2023/09/23 07:01:29;;;;;;;4.97;3.78;;;;;;;12.60;97.34;100938.56;3592757;39;20111;-68
2023/09/23 07:03:55;;;;;;;5.85;3.60;;;;;;;12.63;97.27;100940.22;3582853;39;21033;-68
2023/09/23 07:06:20;;;;;;;7.05;3.40;;;;;;;12.64;97.49;100926.59;3587472;39;20054;-68
2023/09/23 07:08:46;;;;;;;6.47;3.90;;;;;;;12.71;97.75;100941.38;3592330;39;20062;-67
2023/09/23 07:11:13;;;;;;;6.85;4.20;;;;;;;12.77;97.24;100943.66;3591877;39;20378;-67
2023/09/23 07:13:39;;;;;;;9.65;4.20;;;;;;;12.73;97.42;100930.50;3590755;39;20051;-66
2023/09/23 07:16:05;;;;;;;7.05;4.30;;;;;;;12.91;96.88;100952.66;3593086;39;20091;-67
2023/09/23 07:18:31;;;;;;;5.55;4.10;;;;;;;12.99;96.67;100955.66;3592335;39;20047;-68
2023/09/23 07:20:58;;;;;;;8.38;4.18;;;;;;;13.05;96.66;100957.06;3592160;39;20059;-67
2023/09/23 07:23:24;;;;;;;4.07;3.65;;;;;;;13.13;96.69;100962.78;3592802;39;20056;-68
2023/09/23 07:25:50;;;;;;;7.68;4.00;;;;;;;13.23;96.24;100963.88;3589939;39;20047;-67
2023/09/23 07:28:16;;;;;;;7.50;4.05;;;;;;;13.32;96.01;100974.06;3592619;39;20048;-67
2023/09/23 07:30:42;;;;;;;7.20;4.13;;;;;;;13.43;96.28;100976.84;3593166;39;20263;-67
2023/09/23 07:33:08;;;;;;;7.75;4.10;;;;;;;13.62;95.28;100981.78;3592370;39;20375;-69
2023/09/23 07:35:34;;;;;;;8.98;4.40;;;;;;;13.64;93.99;100984.41;3596800;39;20051;-68
2023/09/23 07:38:01;;;;;;;7.40;3.90;;;;;;;13.60;94.17;100951.31;3592518;39;20091;-68
2023/09/23 07:40:29;;;;;;;4.90;3.55;;;;;;;13.84;93.45;100994.63;3591964;39;20064;-67
2023/09/23 07:42:55;;;;;;;7.03;3.83;;;;;;;14.02;94.16;101002.34;3594946;39;20080;-67
2023/09/23 07:45:22;;;;;;;6.55;3.88;;;;;;;14.18;93.74;101005.66;3586385;39;20056;-68
2023/09/23 07:47:48;;;;;;;6.57;3.50;;;;;;;14.25;91.92;100995.25;3594442;39;20051;-68
2023/09/23 07:50:14;;;;;;;7.55;3.83;;;;;;;14.48;91.40;101015.16;3595540;39;20054;-69
2023/09/23 07:52:40;;;;;;;5.80;3.97;;;;;;;14.37;88.62;100988.94;3592673;39;20355;-67
2023/09/23 07:55:06;;;;;;;4.50;3.33;;;;;;;14.71;90.65;101018.84;3596167;39;20133;-67
2023/09/23 07:57:32;;;;;;;8.98;3.85;;;;;;;14.81;88.87;101019.88;3597569;39;20051;-67
2023/09/23 07:59:59;;;;;;;8.50;3.72;;;;;;;14.92;88.51;101029.88;3597351;39;20294;-67
2023/09/23 08:02:25;;;;;;;5.53;3.30;;;;;;;15.00;87.32;101022.91;3594362;39;20318;-66
2023/09/23 08:04:50;;;;;;;5.82;3.25;;;;;;;15.15;88.77;101033.50;3596855;39;20051;-66
2023/09/23 08:07:16;;;;;;;7.93;3.40;;;;;;;15.25;86.91;101039.94;3597073;39;20157;-66
2023/09/23 08:09:41;;;;;;;4.82;2.90;;;;;;;15.32;86.00;101047.47;3598008;39;20056;-66
2023/09/23 08:12:07;;;;;;;6.15;3.33;;;;;;;15.35;84.98;101048.19;3597526;39;20064;-67
2023/09/23 08:14:33;;;;;;;7.68;3.55;;;;;;;15.36;85.08;101047.25;3599853;39;20309;-68
2023/09/23 08:16:59;;;;;;;6.32;3.40;;;;;;;15.43;84.07;101062.88;3598231;39;20071;-65
2023/09/23 08:19:24;;;;;;;5.78;3.08;;;;;;;15.46;83.70;101059.94;3597999;39;20125;-67
2023/09/23 08:21:50;;;;;;;5.32;2.80;;;;;;;15.51;82.83;101068.56;3596891;39;20058;-67
2023/09/23 08:24:15;;;;;;;7.53;3.20;;;;;;;15.45;82.56;101049.22;3597780;39;20402;-65
2023/09/23 08:26:41;;;;;;;6.10;3.22;;;;;;;15.66;83.33;101066.47;3596558;39;20084;-66
2023/09/23 08:29:08;;;;;;;5.13;3.10;;;;;;;15.74;82.43;101074.06;3594338;39;20044;-66
2023/09/23 08:31:33;;;;;;;8.20;3.00;;;;;;;15.79;82.14;101074.53;3586044;39;20059;-66
2023/09/23 08:33:59;;;;;;;6.55;3.33;;;;;;;15.86;82.11;101077.59;3595596;39;20467;-66
2023/09/23 08:36:25;;;;;;;5.63;2.80;;;;;;;15.94;80.25;101084.16;3596740;39;20059;-66
2023/09/23 08:38:50;;;;;;;5.60;3.22;;;;;;;16.00;80.86;101085.50;3597552;39;20063;-65
2023/09/23 08:41:22;;;;;;;5.50;3.08;;;;;;;16.10;80.78;101080.19;3597047;39;20064;-65
2023/09/23 08:43:51;;;;;;;7.65;3.20;;;;;;;16.01;81.61;101060.09;3595292;39;20064;-66
2023/09/23 08:46:21;;;;;;;4.78;2.40;;;;;;;16.31;80.40;101100.16;3598151;39;20052;-65
2023/09/23 08:48:47;;;;;;;7.80;2.80;;;;;;;16.43;79.54;101110.00;3595828;39;20051;-66
2023/09/23 08:51:19;;;;;;;3.25;2.78;;;;;;;16.52;77.88;101112.94;3592604;39;20051;-66
2023/09/23 08:53:46;;;;;;;6.30;2.75;;;;;;;16.51;77.52;101119.38;3594758;39;20083;-66
2023/09/23 08:56:12;;;;;;;5.65;2.67;;;;;;;16.48;77.84;101126.75;3594921;39;20299;-66
2023/09/23 08:58:37;;;;;;;5.63;2.55;;;;;;;16.41;78.10;101121.97;3597066;39;20110;-65
2023/09/23 09:01:03;;;;;;;5.75;2.70;;;;;;;16.36;78.18;101126.91;3597606;39;20573;-69
2023/09/23 09:03:31;;;;;;;3.78;2.10;;;;;;;16.35;78.19;101131.47;3595489;39;20075;-66
2023/09/23 09:05:56;;;;;;;7.28;2.83;;;;;;;16.38;80.34;101133.06;3596717;39;20081;-66
2023/09/23 09:08:22;;;;;;;6.10;2.55;;;;;;;16.34;78.58;101131.59;3597537;39;20060;-67
2023/09/23 09:10:48;;;;;;;5.05;2.33;;;;;;;16.27;78.93;101119.50;3596295;39;20048;-65
2023/09/23 09:13:17;;;;;;;5.22;2.75;;;;;;;16.41;79.36;101133.69;3594727;39;20060;-66
2023/09/23 09:15:43;;;;;;;5.32;2.17;;;;;;;16.71;78.91;101134.84;3596223;39;20328;-67
2023/09/23 09:18:08;;;;;;;5.25;2.47;;;;;;;16.96;77.86;101141.00;3596835;39;20048;-67
2023/09/23 09:20:34;;;;;;;7.05;2.20;;;;;;;17.03;74.95;101144.91;3597607;39;20047;-67
2023/09/23 09:23:00;;;;;;;6.68;2.20;;;;;;;17.14;76.13;101140.31;3593804;39;21110;-66
2023/09/23 09:25:26;;;;;;;4.35;2.47;;;;;;;17.20;75.08;101151.66;3593846;39;20317;-66
2023/09/23 09:27:52;;;;;;;6.53;2.13;;;;;;;17.16;74.73;101157.38;3595168;39;20043;-66
2023/09/23 09:30:19;;;;;;;6.32;2.95;;;;;;;17.03;73.68;101156.69;3594104;39;20055;-65
2023/09/23 09:32:47;;;;;;;5.93;2.25;;;;;;;16.92;73.99;101157.56;3586509;39;20130;-65
2023/09/23 09:35:18;;;;;;;4.38;1.98;;;;;;;16.91;74.54;101169.41;3596260;39;20464;-65
2023/09/23 09:37:47;;;;;;;4.15;1.90;;;;;;;16.81;74.91;101157.59;3583767;39;20048;-65
2023/09/23 09:40:20;;;;;;;5.10;2.03;;;;;;;16.79;75.50;101175.84;3595239;39;20059;-65
2023/09/23 09:42:54;;;;;;;7.78;1.95;;;;;;;16.77;75.73;101182.41;3594241;39;20296;-67
2023/09/23 09:45:21;;;;;;;;;;;;;;;16.63;74.69;101170.78;3597932;39;20120;-66
2023/09/23 09:47:53;;;;;;;3.88;1.85;;;;;;;16.45;74.95;101156.88;3594364;39;20075;-66
2023/09/23 09:50:19;;;;;;;4.32;1.85;;;;;;;16.52;76.37;101168.06;3596818;39;20055;-66
2023/09/23 09:52:45;;;;;;;4.15;2.03;;;;;;;16.57;77.06;101175.88;3595337;39;20052;-64
2023/09/23 09:55:17;;;;;;;4.28;1.75;;;;;;;16.56;77.39;101188.56;3594534;39;20060;-67
2023/09/23 09:57:50;;;;;;;6.57;2.20;;;;;;;16.54;76.49;101181.53;3596400;39;20052;-65
2023/09/23 10:02:49;;;;;;;7.00;1.90;;;;;;;16.54;78.05;101143.53;3593366;39;20040;-68
2023/09/23 10:05:17;;;;;;;6.18;2.20;;;;;;;16.77;77.06;101180.53;3595387;39;20116;-66
2023/09/23 10:07:54;;;;;;;4.82;2.08;;;;;;;16.86;76.20;101181.63;3596262;39;20155;-66
2023/09/23 10:10:34;;;;;;;7.63;2.13;;;;;;;16.90;75.86;101189.44;3595684;39;20058;-66
2023/09/23 10:13:31;;;;;;;4.75;1.90;;;;;;;16.85;75.23;101180.78;3594293;39;20753;-67
2023/09/23 10:16:13;;;;;;;7.03;2.40;;;;;;;16.89;75.19;101179.53;3593217;39;20067;-67
2023/09/23 10:18:41;;;;;;;5.30;2.00;;;;;;;17.05;74.90;101197.28;3594711;39;20048;-66
2023/09/23 10:21:20;;;;;;;5.55;2.20;;;;;;;17.15;75.36;101187.34;3596421;39;20051;-66
2023/09/23 10:23:46;;;;;;;4.75;2.00;;;;;;;17.27;74.74;101197.19;3593505;39;20144;-67
2023/09/23 10:26:19;;;;;;;3.90;1.88;;;;;;;17.33;75.24;101213.00;3594740;39;20051;-67
2023/09/23 10:28:59;;;;;;;5.13;2.00;;;;;;;17.33;74.57;101206.69;3594410;39;20883;-67
2023/09/23 10:31:32;;;;;;;5.38;2.08;;;;;;;17.24;72.99;101202.88;3595905;39;20056;-65
2023/09/23 10:34:04;;;;;;;5.40;2.25;;;;;;;17.13;72.40;101201.09;3595071;39;20093;-66
2023/09/23 10:36:29;;;;;;;3.20;1.77;;;;;;;17.09;72.67;101213.19;3593944;39;20054;-67
2023/09/23 10:38:56;;;;;;;4.47;1.95;;;;;;;17.04;73.73;101204.56;3594837;39;20047;-69
2023/09/23 10:41:31;;;;;;;7.20;2.33;;;;;;;16.99;73.91;101208.66;3592718;39;20116;-65
2023/09/23 10:43:57;;;;;;;6.47;2.20;;;;;;;16.99;75.67;101219.50;3593807;39;20120;-67
2023/09/23 10:46:23;;;;;;;4.53;2.00;;;;;;;17.01;74.37;101231.97;3594291;39;20048;-68
2023/09/23 10:48:49;;;;;;;5.80;2.00;;;;;;;17.04;75.48;101222.72;3597214;39;20058;-66
2023/09/23 10:51:15;;;;;;;5.43;2.28;;;;;;;17.05;73.95;101235.31;3594732;39;20043;-66
2023/09/23 10:53:42;;;;;;;6.75;1.90;;;;;;;16.98;73.66;101224.09;3593199;39;20112;-66
2023/09/23 10:56:10;;;;;;;5.63;2.03;;;;;;;17.04;74.23;101239.88;3593650;39;20051;-67
2023/09/23 10:58:37;;;;;;;6.60;2.15;;;;;;;17.08;74.55;101243.19;3593861;39;20157;-67
2023/09/23 11:01:06;;;;;;;4.60;1.98;;;;;;;17.02;73.34;101246.41;3597060;39;20060;-68
2023/09/23 11:03:41;;;;;;;5.57;2.03;;;;;;;17.06;75.36;101245.16;3594756;39;20044;-67
2023/09/23 11:06:08;;;;;;;4.05;2.20;;;;;;;16.97;74.78;101233.22;3587293;40;20058;-67
2023/09/23 11:08:34;;;;;;;5.00;1.90;;;;;;;17.08;75.09;101252.22;3593870;39;20040;-68
2023/09/23 11:11:00;;;;;;;4.95;2.10;;;;;;;17.23;75.75;101255.50;3590895;39;20114;-66
2023/09/23 11:13:26;;;;;;;4.35;2.10;;;;;;;17.35;74.68;101251.78;3593329;39;20056;-67
2023/09/23 11:15:52;;;;;;;8.10;3.85;;;;;;;17.35;74.06;101238.19;3594109;39;20049;-67
2023/09/23 11:18:18;;;;;;;8.43;2.50;;;;;;;17.67;72.39;101267.22;3592798;39;20117;-67
2023/09/23 11:20:47;;;;;;;7.75;2.10;;;;;;;17.81;73.06;101266.09;3596244;39;20059;-67
2023/09/23 11:23:14;;;;;;;3.00;1.80;;;;;;;17.91;72.14;101266.16;3593161;39;20078;-67
2023/09/23 11:25:44;;;;;;;4.75;2.55;;;;;;;17.81;70.56;101266.94;3593378;39;20086;-66
2023/09/23 11:28:19;;;;;;;3.72;1.80;;;;;;;17.89;72.01;101276.28;3592750;39;20058;-66